Time;durP1;ratioP1;P1;durP2;ratioP2;P2;SDS_P1;SDS_P2;PMS_P1;PMS_P2;Temp;Humidity;BMP_temperature;BMP_pressure;BME280_temperature;BME280_humidity;BME280_pressure;Samples;Min_cycle;Max_cycle;Signal;HPM_P1;HPM_P2
2023/04/20 00:00:16;;;;;;;5.83;4.87;;;5.70;99.90;;;;;;5067000;28;20499;-52
2023/04/20 00:02:44;;;;;;;4.93;4.47;;;5.70;99.90;;;;;;5068862;28;20456;-51
2023/04/20 00:05:12;;;;;;;12.40;5.10;;;5.70;99.90;;;;;;5063861;28;20460;-52
2023/04/20 00:07:40;;;;;;;6.30;4.80;;;5.70;99.90;;;;;;5065536;28;20456;-52
2023/04/20 00:10:08;;;;;;;6.00;4.80;;;5.70;99.90;;;;;;5064511;28;20484;-52
2023/04/20 00:12:35;;;;;;;6.90;5.13;;;5.70;99.90;;;;;;5075358;28;20854;-52
2023/04/20 00:15:01;;;;;;;6.00;5.00;;;5.70;99.90;;;;;;5069654;28;20451;-53
2023/04/20 00:17:28;;;;;;;6.70;5.20;;;5.70;99.90;;;;;;5055372;28;20467;-53
2023/04/20 00:19:55;;;;;;;5.63;5.03;;;5.70;99.90;;;;;;5061921;28;20903;-53
2023/04/20 00:22:24;;;;;;;7.57;6.40;;;5.70;99.90;;;;;;5063853;28;20980;-53
2023/04/20 00:24:50;;;;;;;5.87;4.60;;;5.70;99.90;;;;;;5067968;28;20547;-53
2023/04/20 00:27:17;;;;;;;10.80;4.60;;;5.70;99.90;;;;;;5068482;28;20473;-52
2023/04/20 00:29:44;;;;;;;7.03;5.07;;;5.80;99.90;;;;;;5069800;28;20447;-52
2023/04/20 00:32:10;;;;;;;5.70;5.20;;;5.80;99.90;;;;;;5068920;28;20482;-52
2023/04/20 00:34:37;;;;;;;5.80;5.20;;;5.80;99.90;;;;;;5066504;28;20464;-52
2023/04/20 00:37:03;;;;;;;9.13;6.03;;;5.80;99.90;;;;;;5068810;28;20503;-51
2023/04/20 00:39:31;;;;;;;5.53;5.03;;;5.80;99.90;;;;;;5063906;28;20530;-53
2023/04/20 00:42:04;;;;;;;6.73;5.70;;;5.90;99.90;;;;;;5064143;28;20542;-52
2023/04/20 00:44:31;;;;;;;7.77;5.47;;;5.80;99.90;;;;;;5066473;28;20829;-53
2023/04/20 00:46:57;;;;;;;8.47;6.00;;;5.80;99.90;;;;;;5069255;28;20530;-52
2023/04/20 00:49:26;;;;;;;9.87;5.40;;;5.80;99.90;;;;;;5066576;28;20468;-52
2023/04/20 00:51:53;;;;;;;6.13;5.53;;;5.80;99.90;;;;;;5064890;28;20487;-52
2023/04/20 00:54:19;;;;;;;7.07;6.37;;;5.80;99.90;;;;;;5060560;28;20452;-52
2023/04/20 00:56:48;;;;;;;6.33;5.20;;;5.80;99.90;;;;;;5067374;28;20491;-51
2023/04/20 00:59:15;;;;;;;7.27;5.40;;;5.80;99.90;;;;;;5072170;28;20949;-52
2023/04/20 01:01:42;;;;;;;6.63;5.93;;;5.80;99.90;;;;;;5074295;28;20537;-52
2023/04/20 01:04:09;;;;;;;7.03;5.43;;;5.80;99.90;;;;;;5071528;28;20460;-53
2023/04/20 01:06:35;;;;;;;8.90;5.57;;;5.90;99.90;;;;;;5064362;28;20456;-53
2023/04/20 01:09:02;;;;;;;10.53;6.07;;;5.90;99.90;;;;;;5065028;28;20546;-51
2023/04/20 01:11:29;;;;;;;9.33;6.17;;;5.90;99.90;;;;;;5066031;28;20889;-53
2023/04/20 01:13:56;;;;;;;6.73;5.13;;;6.00;99.90;;;;;;5072592;28;20464;-52
2023/04/20 01:16:23;;;;;;;5.50;4.80;;;5.90;99.90;;;;;;5068353;28;20500;-52
2023/04/20 01:18:51;;;;;;;5.87;5.30;;;5.90;99.90;;;;;;5069646;28;20882;-52
2023/04/20 01:21:20;;;;;;;8.93;6.10;;;5.90;99.90;;;;;;5067755;28;20491;-52
2023/04/20 01:23:48;;;;;;;7.90;5.77;;;5.90;99.90;;;;;;5070710;28;20477;-52
2023/04/20 01:26:16;;;;;;;9.77;6.70;;;5.90;99.90;;;;;;5069510;28;20525;-53
2023/04/20 01:28:43;;;;;;;11.17;5.90;;;5.90;99.90;;;;;;5066713;28;20472;-52
2023/04/20 01:31:11;;;;;;;6.37;5.67;;;5.90;99.90;;;;;;5070451;28;21059;-52
2023/04/20 01:33:37;;;;;;;8.07;5.33;;;5.90;99.90;;;;;;5066458;28;20547;-52
2023/04/20 01:36:06;;;;;;;7.23;5.80;;;5.90;99.90;;;;;;5068115;28;20526;-52
2023/04/20 01:38:33;;;;;;;5.67;5.17;;;5.90;99.90;;;;;;5068787;28;20946;-53
2023/04/20 01:41:03;;;;;;;8.33;6.60;;;5.90;99.90;;;;;;5069388;28;20537;-52
2023/04/20 01:43:29;;;;;;;7.70;5.87;;;6.00;99.90;;;;;;5066550;28;20475;-53
2023/04/20 01:45:56;;;;;;;12.17;6.20;;;6.00;99.90;;;;;;5070238;28;20988;-52
2023/04/20 01:48:23;;;;;;;10.13;6.50;;;6.00;99.90;;;;;;5062364;28;20565;-52
2023/04/20 01:50:50;;;;;;;8.50;5.73;;;5.90;99.90;;;;;;5068073;28;21058;-51
2023/04/20 01:53:17;;;;;;;6.40;5.10;;;6.00;99.90;;;;;;5066965;28;20878;-51
2023/04/20 01:55:43;;;;;;;8.60;5.63;;;6.00;99.90;;;;;;5070471;28;20507;-53
2023/04/20 01:58:11;;;;;;;10.90;5.60;;;5.90;99.90;;;;;;5069792;28;20495;-52
2023/04/20 02:00:38;;;;;;;11.83;6.73;;;6.00;99.90;;;;;;5068780;28;20636;-56
2023/04/20 02:03:05;;;;;;;7.00;5.23;;;5.90;99.90;;;;;;5066538;28;20484;-56
2023/04/20 02:05:31;;;;;;;7.77;6.10;;;5.90;99.90;;;;;;5068782;28;20464;-56
2023/04/20 02:07:58;;;;;;;12.50;6.60;;;6.00;99.90;;;;;;5067707;28;20464;-56
2023/04/20 02:10:25;;;;;;;9.03;5.97;;;6.00;99.90;;;;;;5071539;28;20884;-55
2023/04/20 02:12:51;;;;;;;9.60;5.47;;;5.90;99.90;;;;;;5073227;28;20495;-56
2023/04/20 02:15:19;;;;;;;8.07;5.70;;;6.00;99.90;;;;;;5065771;28;20447;-56
2023/04/20 02:17:50;;;;;;;11.13;6.43;;;5.90;99.90;;;;;;5072473;28;20469;-55
2023/04/20 02:20:19;;;;;;;10.07;5.80;;;5.90;99.90;;;;;;5072790;28;20520;-56
2023/04/20 02:22:45;;;;;;;5.60;4.87;;;6.00;99.90;;;;;;5073436;28;20468;-56
2023/04/20 02:25:12;;;;;;;7.30;5.50;;;6.00;99.90;;;;;;5074120;28;20497;-56
2023/04/20 02:27:39;;;;;;;12.53;5.57;;;5.90;99.90;;;;;;5075216;28;20468;-55
2023/04/20 02:30:07;;;;;;;10.90;6.50;;;6.00;99.90;;;;;;5068639;28;20586;-55
2023/04/20 02:32:35;;;;;;;9.03;5.70;;;6.00;99.90;;;;;;5071914;28;20481;-54
2023/04/20 02:35:02;;;;;;;9.13;5.50;;;5.90;99.90;;;;;;5067082;28;20475;-56
2023/04/20 02:37:29;;;;;;;12.07;6.90;;;6.00;99.90;;;;;;5069649;28;20487;-56
2023/04/20 02:39:56;;;;;;;12.37;6.40;;;6.00;99.90;;;;;;5064128;28;21016;-56
2023/04/20 02:42:22;;;;;;;7.60;6.00;;;6.00;99.90;;;;;;5070791;28;20530;-56
2023/04/20 02:44:51;;;;;;;8.00;6.50;;;5.90;99.90;;;;;;5068097;28;20983;-56
2023/04/20 02:47:18;;;;;;;8.67;6.67;;;5.90;99.90;;;;;;5072782;28;20494;-56
2023/04/20 02:49:46;;;;;;;8.10;5.87;;;5.90;99.90;;;;;;5071789;28;20462;-56
2023/04/20 02:52:13;;;;;;;10.97;6.00;;;5.90;99.90;;;;;;5067255;28;20491;-56
2023/04/20 02:54:39;;;;;;;16.00;6.37;;;5.90;99.90;;;;;;5071253;28;20915;-56
2023/04/20 02:57:06;;;;;;;8.57;6.13;;;5.90;99.90;;;;;;5072648;28;20534;-56
2023/04/20 02:59:32;;;;;;;9.97;5.97;;;5.90;99.90;;;;;;5078967;28;20838;-56
2023/04/20 03:01:59;;;;;;;11.03;6.67;;;6.00;99.90;;;;;;5072547;28;20468;-55
2023/04/20 03:04:26;;;;;;;16.07;7.23;;;5.90;99.90;;;;;;5071968;28;20503;-56
2023/04/20 03:06:54;;;;;;;12.33;7.37;;;5.90;99.90;;;;;;5073514;28;20474;-56
2023/04/20 03:09:21;;;;;;;16.00;6.77;;;5.90;99.90;;;;;;5068802;28;20460;-55
2023/04/20 03:11:47;;;;;;;11.27;7.40;;;6.00;99.90;;;;;;5069612;28;21063;-56
2023/04/20 03:14:14;;;;;;;9.77;7.50;;;5.90;99.90;;;;;;5067797;28;20577;-56
2023/04/20 03:16:41;;;;;;;17.90;7.53;;;6.00;99.90;;;;;;5070678;28;20491;-56
2023/04/20 03:19:07;;;;;;;16.23;8.23;;;5.90;99.90;;;;;;5066071;28;20525;-56
2023/04/20 03:21:34;;;;;;;11.13;8.07;;;5.90;99.90;;;;;;5073886;28;22845;-56
2023/04/20 03:24:02;;;;;;;16.60;7.83;;;5.90;99.90;;;;;;5070785;28;20881;-55
2023/04/20 03:26:28;;;;;;;15.77;9.13;;;5.90;99.90;;;;;;5065736;28;20992;-56
2023/04/20 03:28:55;;;;;;;11.20;8.20;;;5.90;99.90;;;;;;5068074;28;20458;-56
2023/04/20 03:31:22;;;;;;;12.63;8.67;;;5.90;99.90;;;;;;5074033;28;21031;-55
2023/04/20 03:33:48;;;;;;;13.17;8.27;;;5.80;99.90;;;;;;5072152;28;20514;-56
2023/04/20 03:36:15;;;;;;;15.47;9.00;;;5.90;99.90;;;;;;5074617;28;20444;-56
2023/04/20 03:38:42;;;;;;;14.13;8.87;;;5.90;99.90;;;;;;5073668;28;20460;-57
2023/04/20 03:41:09;;;;;;;10.77;8.50;;;5.90;99.90;;;;;;5076131;28;20679;-56
2023/04/20 03:43:36;;;;;;;17.23;10.10;;;5.90;99.90;;;;;;5070947;28;20487;-55
2023/04/20 03:46:02;;;;;;;15.97;9.60;;;5.90;99.90;;;;;;5071853;28;20500;-57
2023/04/20 03:48:29;;;;;;;10.70;8.37;;;5.90;99.90;;;;;;5082801;28;20472;-57
2023/04/20 03:50:56;;;;;;;15.70;10.57;;;5.90;99.90;;;;;;5089152;28;20479;-56
2023/04/20 03:53:22;;;;;;;13.17;9.70;;;5.90;99.90;;;;;;5073705;28;20905;-56
2023/04/20 03:55:49;;;;;;;17.07;10.20;;;5.90;99.90;;;;;;5082816;28;20461;-57
2023/04/20 03:58:17;;;;;;;15.63;9.33;;;5.90;99.90;;;;;;5066223;28;20924;-56
2023/04/20 04:00:44;;;;;;;14.07;9.70;;;6.00;99.90;;;;;;5077882;28;20492;-56
2023/04/20 04:03:10;;;;;;;21.33;11.10;;;5.90;99.90;;;;;;5074522;28;20460;-56
2023/04/20 04:05:37;;;;;;;15.13;10.03;;;5.90;99.90;;;;;;5072884;28;20481;-56
2023/04/20 04:08:04;;;;;;;14.73;10.67;;;6.00;99.90;;;;;;5066928;28;20491;-56
2023/04/20 04:10:30;;;;;;;19.53;12.70;;;6.00;99.90;;;;;;5071398;28;20472;-55
2023/04/20 04:12:57;;;;;;;19.30;11.80;;;6.00;99.90;;;;;;5069885;28;20487;-56
2023/04/20 04:15:25;;;;;;;16.80;10.90;;;6.00;99.90;;;;;;5067288;28;20492;-55
2023/04/20 04:17:53;;;;;;;17.40;12.23;;;6.00;99.90;;;;;;5073709;28;20475;-56
2023/04/20 04:20:20;;;;;;;21.00;12.40;;;5.90;99.90;;;;;;5072958;28;20565;-55
2023/04/20 04:22:46;;;;;;;17.10;13.00;;;6.00;99.90;;;;;;5065851;28;20590;-55
2023/04/20 04:25:13;;;;;;;24.80;13.73;;;6.00;99.90;;;;;;5064851;28;20929;-56
2023/04/20 04:27:40;;;;;;;19.97;12.43;;;6.00;99.90;;;;;;5070227;28;20547;-55
2023/04/20 04:30:09;;;;;;;20.33;13.33;;;6.10;99.90;;;;;;5065782;28;20927;-55
2023/04/20 04:32:38;;;;;;;20.67;13.57;;;6.10;99.90;;;;;;5065567;28;20550;-56
2023/04/20 04:35:05;;;;;;;24.70;13.97;;;6.10;99.90;;;;;;5070570;28;20460;-56
2023/04/20 04:37:32;;;;;;;20.40;14.00;;;6.10;99.90;;;;;;5068084;28;20464;-56
2023/04/20 04:39:59;;;;;;;25.80;14.03;;;6.20;99.90;;;;;;5065625;28;20513;-56
2023/04/20 04:42:26;;;;;;;20.53;13.47;;;6.20;99.90;;;;;;5075227;28;20491;-55
2023/04/20 04:44:54;;;;;;;20.50;14.60;;;6.20;99.90;;;;;;5063592;28;20560;-56
2023/04/20 04:47:21;;;;;;;21.60;14.20;;;6.10;99.90;;;;;;5058642;28;20516;-50
2023/04/20 04:49:50;;;;;;;21.33;14.70;;;6.20;99.90;;;;;;5065908;28;20588;-49
2023/04/20 04:52:16;;;;;;;21.67;12.93;;;6.20;99.90;;;;;;5066230;28;20472;-49
2023/04/20 04:54:43;;;;;;;20.60;14.10;;;6.20;99.90;;;;;;5065282;28;20918;-49
2023/04/20 04:57:09;;;;;;;19.37;13.53;;;6.20;99.90;;;;;;5069364;28;20464;-56
2023/04/20 04:59:36;;;;;;;25.10;15.77;;;6.20;99.90;;;;;;5069298;28;20554;-57
2023/04/20 05:02:03;;;;;;;22.70;15.83;;;6.30;99.90;;;;;;5068366;28;20467;-57
2023/04/20 05:04:29;;;;;;;21.53;15.07;;;6.30;99.90;;;;;;5068745;28;20487;-57
2023/04/20 05:06:57;;;;;;;21.30;15.10;;;6.30;99.90;;;;;;5066113;28;20547;-57
2023/04/20 05:09:24;;;;;;;23.90;15.00;;;6.30;99.90;;;;;;5066549;28;20495;-56
2023/04/20 05:11:50;;;;;;;16.77;13.33;;;6.30;99.90;;;;;;5067414;28;20514;-58
2023/04/20 05:14:17;;;;;;;25.80;15.43;;;6.30;99.90;;;;;;5073949;28;20524;-58
2023/04/20 05:16:44;;;;;;;26.23;15.87;;;6.30;99.90;;;;;;5066003;28;20574;-57
2023/04/20 05:19:10;;;;;;;32.57;17.07;;;6.40;99.90;;;;;;5066833;28;20557;-56
2023/04/20 05:21:38;;;;;;;23.90;16.70;;;6.40;99.90;;;;;;5068903;28;20498;-57
2023/04/20 05:24:06;;;;;;;19.20;13.77;;;6.40;99.90;;;;;;5066520;28;20514;-57
2023/04/20 05:26:32;;;;;;;23.40;15.97;;;6.50;99.90;;;;;;5064179;28;20550;-57
2023/04/20 05:28:59;;;;;;;22.97;15.57;;;6.50;99.90;;;;;;5056722;28;20461;-55
2023/04/20 05:31:26;;;;;;;23.47;15.30;;;6.50;99.90;;;;;;5070587;28;20479;-56
2023/04/20 05:33:52;;;;;;;20.97;16.30;;;6.50;99.90;;;;;;5071490;28;21002;-57
2023/04/20 05:36:19;;;;;;;22.10;15.47;;;6.50;99.90;;;;;;5062868;28;20979;-56
2023/04/20 05:38:46;;;;;;;24.30;15.63;;;6.50;99.90;;;;;;5066207;28;20491;-57
2023/04/20 05:41:14;;;;;;;18.40;14.40;;;6.60;99.90;;;;;;5067356;28;20499;-56
2023/04/20 05:43:40;;;;;;;21.13;15.20;;;6.60;99.90;;;;;;5073735;28;20451;-56
2023/04/20 05:46:07;;;;;;;21.40;15.60;;;6.60;99.90;;;;;;5075015;28;20480;-56
2023/04/20 05:48:34;;;;;;;25.33;15.03;;;6.60;99.90;;;;;;5072394;28;20494;-57
2023/04/20 05:51:00;;;;;;;21.83;16.13;;;6.60;99.90;;;;;;5072119;28;20866;-58
2023/04/20 05:53:27;;;;;;;26.43;16.73;;;6.60;99.90;;;;;;5073951;28;21049;-56
2023/04/20 05:55:54;;;;;;;27.43;15.93;;;6.70;99.90;;;;;;5073967;28;20500;-56
2023/04/20 05:58:22;;;;;;;18.43;15.10;;;6.80;99.90;;;;;;5063417;28;20859;-57
2023/04/20 06:00:48;;;;;;;22.23;16.30;;;6.80;99.90;;;;;;5055725;28;20504;-58
2023/04/20 06:03:15;;;;;;;22.87;15.63;;;6.80;99.90;;;;;;5068725;28;20437;-57
2023/04/20 06:05:42;;;;;;;22.70;16.43;;;6.80;99.90;;;;;;5077305;28;20490;-57
2023/04/20 06:08:08;;;;;;;20.83;15.87;;;6.80;99.90;;;;;;5092486;28;20573;-57
2023/04/20 06:10:35;;;;;;;20.57;15.40;;;6.80;99.90;;;;;;5090571;28;20487;-57
2023/04/20 06:13:01;;;;;;;21.13;15.20;;;6.90;99.90;;;;;;5080799;28;20464;-57
2023/04/20 06:15:29;;;;;;;22.00;15.30;;;6.90;99.90;;;;;;5068896;28;20522;-57
2023/04/20 06:17:56;;;;;;;24.80;16.50;;;7.10;99.90;;;;;;5073967;28;20879;-57
2023/04/20 06:20:23;;;;;;;22.40;16.03;;;7.10;99.90;;;;;;5070308;28;20546;-56
2023/04/20 06:22:49;;;;;;;27.00;15.40;;;7.10;99.90;;;;;;5073946;28;20472;-58
2023/04/20 06:25:16;;;;;;;22.30;16.57;;;7.10;99.90;;;;;;5073581;28;21006;-58
2023/04/20 06:27:43;;;;;;;27.93;15.23;;;7.20;99.90;;;;;;5070486;28;20499;-56
2023/04/20 06:30:10;;;;;;;17.23;14.97;;;7.30;99.90;;;;;;5077567;28;20471;-57
2023/04/20 06:32:38;;;;;;;18.83;14.97;;;7.30;99.90;;;;;;5077656;28;20477;-57
2023/04/20 06:35:05;;;;;;;19.53;15.60;;;7.30;99.90;;;;;;5070606;28;20520;-57
2023/04/20 06:37:32;;;;;;;27.63;16.90;;;7.30;99.90;;;;;;5070992;28;20495;-56
2023/04/20 06:39:59;;;;;;;23.50;16.20;;;7.40;99.90;;;;;;5071540;28;20468;-57
2023/04/20 06:42:26;;;;;;;19.03;15.23;;;7.40;99.90;;;;;;5063519;28;20464;-55
2023/04/20 06:44:52;;;;;;;20.60;15.40;;;7.40;99.90;;;;;;5072177;28;21335;-57
2023/04/20 06:47:19;;;;;;;21.87;15.13;;;7.30;99.90;;;;;;5072971;28;20503;-57
2023/04/20 06:49:47;;;;;;;22.50;16.13;;;7.40;99.90;;;;;;5068642;28;20533;-57
2023/04/20 06:52:13;;;;;;;19.57;14.90;;;7.50;99.90;;;;;;5070035;28;20461;-56
2023/04/20 06:54:40;;;;;;;25.93;16.03;;;7.40;99.90;;;;;;5060598;28;20504;-57
2023/04/20 06:57:07;;;;;;;27.43;15.67;;;7.40;99.90;;;;;;5067948;28;20517;-56
2023/04/20 06:59:33;;;;;;;29.77;15.13;;;7.40;99.90;;;;;;5082851;28;20466;-56
2023/04/20 07:02:00;;;;;;;20.80;15.77;;;7.40;99.90;;;;;;5092977;28;20482;-57
2023/04/20 07:04:26;;;;;;;18.70;14.17;;;7.40;99.90;;;;;;5086869;28;20453;-59
2023/04/20 07:06:54;;;;;;;20.10;14.70;;;7.50;99.90;;;;;;5093555;28;20484;-57
2023/04/20 07:09:21;;;;;;;19.60;15.67;;;7.50;99.90;;;;;;5066822;28;20460;-57
2023/04/20 07:11:48;;;;;;;23.90;13.67;;;7.50;99.90;;;;;;5055693;28;20480;-56
2023/04/20 07:14:15;;;;;;;20.73;15.37;;;7.60;99.90;;;;;;5058733;28;21083;-57
2023/04/20 07:16:42;;;;;;;20.90;14.13;;;7.80;99.90;;;;;;5059513;28;20558;-59
2023/04/20 07:19:08;;;;;;;18.27;13.90;;;7.90;99.90;;;;;;5067891;28;20501;-56
2023/04/20 07:21:35;;;;;;;18.97;14.33;;;8.10;99.90;;;;;;5063147;28;21099;-57
2023/04/20 07:24:03;;;;;;;14.60;12.20;;;8.20;95.80;;;;;;5061681;28;20456;-57
2023/04/20 07:26:30;;;;;;;18.10;13.47;;;8.20;36.80;;;;;;5077541;28;20464;-57
2023/04/20 07:28:56;;;;;;;27.10;14.17;;;8.40;23.50;;;;;;5066889;28;20906;-57
2023/04/20 07:31:23;;;;;;;18.43;13.73;;;8.30;46.10;;;;;;5061946;28;20501;-58
2023/04/20 07:33:49;;;;;;;25.80;13.87;;;8.20;46.80;;;;;;5066716;28;20520;-57
2023/04/20 07:36:16;;;;;;;15.70;13.53;;;8.40;30.30;;;;;;5067754;28;20917;-56
2023/04/20 07:38:43;;;;;;;18.03;13.47;;;8.30;40.80;;;;;;5070345;28;20500;-56
2023/04/20 07:41:11;;;;;;;16.30;13.07;;;8.20;58.20;;;;;;5071285;28;20492;-56
2023/04/20 07:43:38;;;;;;;34.10;16.87;;;8.20;58.30;;;;;;5075669;28;20490;-57
2023/04/20 07:46:04;;;;;;;26.23;13.27;;;8.30;60.10;;;;;;5072948;28;20454;-56
2023/04/20 07:48:31;;;;;;;18.30;13.27;;;8.30;48.40;;;;;;5057497;28;20484;-57
2023/04/20 07:50:58;;;;;;;14.20;12.10;;;8.40;41.80;;;;;;5064384;28;21014;-57
2023/04/20 07:53:25;;;;;;;20.83;14.00;;;8.30;54.00;;;;;;5057267;28;20467;-56
2023/04/20 07:55:52;;;;;;;16.10;14.30;;;8.40;48.70;;;;;;5067344;28;20582;-57
2023/04/20 07:58:20;;;;;;;14.77;12.50;;;8.50;52.50;;;;;;5065948;28;20508;-56
2023/04/20 08:00:47;;;;;;;17.47;13.77;;;8.50;56.00;;;;;;5072389;28;20474;-49
2023/04/20 08:03:14;;;;;;;20.40;14.80;;;8.60;43.30;;;;;;5067320;28;20458;-49
2023/04/20 08:05:41;;;;;;;20.57;13.70;;;8.70;49.80;;;;;;5064798;28;20524;-48
2023/04/20 08:08:07;;;;;;;22.63;15.33;;;8.70;51.30;;;;;;5056552;28;20492;-48
2023/04/20 08:10:34;;;;;;;16.83;14.17;;;8.60;67.40;;;;;;5073234;28;20897;-49
2023/04/20 08:13:01;;;;;;;20.47;14.10;;;8.70;56.70;;;;;;5053544;28;20560;-48
2023/04/20 08:15:29;;;;;;;16.17;13.70;;;8.70;57.70;;;;;;5058282;28;20491;-49
2023/04/20 08:17:56;;;;;;;18.00;14.40;;;8.70;51.50;;;;;;5061094;28;20886;-49
2023/04/20 08:20:22;;;;;;;17.83;12.67;;;8.70;53.60;;;;;;5053571;28;20568;-49
2023/04/20 08:22:49;;;;;;;17.57;12.83;;;8.70;70.10;;;;;;5067875;28;21036;-48
2023/04/20 08:25:16;;;;;;;15.20;13.53;;;8.70;65.40;;;;;;5060832;28;20479;-49
2023/04/20 08:27:43;;;;;;;72.27;21.80;;;8.60;74.60;;;;;;5087204;28;20444;-49
2023/04/20 08:30:10;;;;;;;14.93;13.40;;;8.60;65.30;;;;;;5071864;28;20570;-49
2023/04/20 08:32:39;;;;;;;17.73;13.83;;;8.50;64.20;;;;;;5062919;28;20506;-49
2023/04/20 08:35:07;;;;;;;14.40;12.53;;;8.50;64.50;;;;;;5060263;28;20484;-49
2023/04/20 08:37:34;;;;;;;18.07;12.70;;;8.40;70.70;;;;;;5068999;28;20892;-48
2023/04/20 08:40:00;;;;;;;16.37;12.77;;;8.40;46.60;;;;;;5064051;28;20976;-48
2023/04/20 08:42:27;;;;;;;19.63;12.60;;;8.50;42.00;;;;;;5067419;28;21157;-49
2023/04/20 08:44:53;;;;;;;15.87;12.97;;;8.30;51.60;;;;;;5052066;28;20476;-49
2023/04/20 08:47:21;;;;;;;15.40;12.57;;;8.30;42.60;;;;;;5070743;28;20491;-49
2023/04/20 08:49:52;;;;;;;15.80;11.60;;;8.30;40.10;;;;;;5056757;28;20604;-48
2023/04/20 08:52:19;;;;;;;13.37;11.03;;;8.20;36.60;;;;;;5050433;28;20552;-49
2023/04/20 08:54:45;;;;;;;15.27;12.23;;;8.20;28.60;;;;;;5049597;28;20576;-49
2023/04/20 08:57:12;;;;;;;15.27;11.13;;;8.20;26.00;;;;;;5063137;28;20496;-48
2023/04/20 08:59:38;;;;;;;13.57;11.57;;;8.30;99.90;;;;;;5073545;28;20520;-49
2023/04/20 09:02:10;;;;;;;14.20;10.93;;;8.30;99.90;;;;;;5070141;28;20507;-48
2023/04/20 09:04:37;;;;;;;12.80;10.80;;;8.30;99.90;;;;;;5069567;28;20962;-49
2023/04/20 09:07:05;;;;;;;13.60;10.40;;;8.20;99.90;;;;;;5062457;28;20499;-49
2023/04/20 09:09:32;;;;;;;17.30;11.73;;;8.20;99.90;;;;;;5059019;28;20468;-48
2023/04/20 09:12:02;;;;;;;14.07;10.80;;;8.20;99.90;;;;;;5060098;28;20460;-48
2023/04/20 09:14:29;;;;;;;13.13;10.90;;;8.20;99.90;;;;;;5063193;28;20556;-49
2023/04/20 09:17:00;;;;;;;13.20;10.53;;;8.10;99.90;;;;;;5057711;28;20544;-48
2023/04/20 09:19:28;;;;;;;18.23;12.17;;;8.10;99.90;;;;;;5060633;28;20456;-48
2023/04/20 09:21:56;;;;;;;14.97;11.57;;;8.20;99.90;;;;;;5057283;28;20558;-48
2023/04/20 09:24:31;;;;;;;15.07;11.90;;;8.20;99.90;;;;;;5067178;28;20550;-49
2023/04/20 09:26:57;;;;;;;13.70;11.63;;;8.20;99.90;;;;;;5069949;28;20978;-49
2023/04/20 09:29:25;;;;;;;14.90;11.07;;;8.20;99.90;;;;;;5061805;28;20832;-48
2023/04/20 09:31:53;;;;;;;12.03;10.43;;;8.30;99.90;;;;;;5058635;28;20481;-49
2023/04/20 09:34:20;;;;;;;12.00;10.53;;;8.40;99.90;;;;;;5059086;28;20481;-49
2023/04/20 09:36:49;;;;;;;13.53;11.57;;;8.50;99.90;;;;;;5057060;28;20548;-49
2023/04/20 09:39:17;;;;;;;13.80;10.87;;;8.60;99.90;;;;;;5060565;28;20549;-48
2023/04/20 09:41:46;;;;;;;15.23;10.30;;;8.80;99.90;;;;;;5059996;28;20484;-48
2023/04/20 09:44:13;;;;;;;14.07;10.93;;;9.00;99.90;;;;;;5059006;28;20489;-49
2023/04/20 09:46:41;;;;;;;15.27;10.60;;;9.10;99.90;;;;;;5059992;28;20901;-49
2023/04/20 09:49:09;;;;;;;12.33;10.17;;;9.20;99.90;;;;;;5063566;28;20453;-49
2023/04/20 09:51:37;;;;;;;10.47;8.83;;;9.30;99.90;;;;;;5058855;28;20549;-49
2023/04/20 09:54:05;;;;;;;8.97;7.80;;;9.20;53.10;;;;;;5062796;28;20464;-48
2023/04/20 09:56:33;;;;;;;13.17;9.10;;;9.30;46.00;;;;;;5058148;28;20484;-49
2023/04/20 09:59:02;;;;;;;10.60;9.40;;;9.40;35.20;;;;;;5064297;28;20464;-50
2023/04/20 10:01:30;;;;;;;9.10;8.20;;;9.50;53.60;;;;;;5067170;28;20484;-49
2023/04/20 10:03:59;;;;;;;11.87;9.00;;;9.50;68.80;;;;;;5064659;28;20575;-49
2023/04/20 10:06:28;;;;;;;10.43;8.50;;;10.00;50.20;;;;;;5062676;28;20447;-50
2023/04/20 10:08:55;;;;;;;11.20;7.47;;;10.20;68.00;;;;;;5067549;28;20491;-48
2023/04/20 10:11:26;;;;;;;10.37;7.90;;;10.00;99.90;;;;;;5061296;28;20483;-49
2023/04/20 10:13:53;;;;;;;8.63;7.93;;;10.30;71.90;;;;;;5063714;28;20526;-49
2023/04/20 10:16:21;;;;;;;8.60;7.70;;;10.60;78.70;;;;;;5064170;28;20580;-48
2023/04/20 10:18:59;;;;;;;8.03;7.30;;;10.90;74.00;;;;;;5064486;28;20459;-49
2023/04/20 10:21:26;;;;;;;12.70;8.23;;;10.90;99.90;;;;;;5059615;28;20481;-49
2023/04/20 10:23:53;;;;;;;8.03;7.37;;;11.00;99.90;;;;;;5064159;28;20467;-49
2023/04/20 10:26:20;;;;;;;8.50;7.67;;;11.10;99.90;;;;;;5066538;28;20456;-49
2023/04/20 10:28:47;;;;;;;8.33;7.60;;;12.00;99.90;;;;;;5065466;28;20452;-49
2023/04/20 10:31:15;;;;;;;9.00;7.10;;;12.80;99.90;;;;;;5065013;28;20579;-49
2023/04/20 10:33:53;;;;;;;8.17;7.37;;;12.50;99.90;;;;;;5063819;28;21006;-49
2023/04/20 10:36:28;;;;;;;9.03;8.03;;;12.50;66.20;;;;;;5060948;28;20555;-48
2023/04/20 10:38:55;;;;;;;10.47;8.23;;;12.80;83.70;;;;;;5064725;28;20492;-49
2023/04/20 10:41:21;;;;;;;8.20;7.40;;;13.40;54.10;;;;;;5063478;28;20476;-51
2023/04/20 10:43:48;;;;;;;8.60;7.60;;;13.70;99.90;;;;;;5059060;28;20469;-48
2023/04/20 10:46:16;;;;;;;8.30;7.57;;;13.50;99.90;;;;;;5056131;28;21091;-49
2023/04/20 10:48:51;;;;;;;8.53;7.60;;;13.10;99.90;;;;;;5064236;28;20513;-48
2023/04/20 10:51:19;;;;;;;7.73;6.93;;;13.00;86.70;;;;;;5062670;28;20477;-48
2023/04/20 10:53:46;;;;;;;10.23;9.17;;;12.70;61.80;;;;;;5063698;28;20459;-50
2023/04/20 10:56:12;;;;;;;11.93;8.80;;;12.80;69.60;;;;;;5064745;28;20502;-49
2023/04/20 10:58:40;;;;;;;11.63;9.27;;;12.60;55.80;;;;;;5062077;28;20491;-49
2023/04/20 11:01:07;;;;;;;11.17;8.57;;;12.30;67.40;;;;;;5057663;28;20503;-49
2023/04/20 11:03:34;;;;;;;10.63;9.63;;;12.40;34.00;;;;;;5062068;28;20491;-48
2023/04/20 11:06:02;;;;;;;10.10;9.10;;;12.60;87.70;;;;;;5064040;28;20462;-49
2023/04/20 11:08:41;;;;;;;11.30;9.33;;;12.70;99.90;;;;;;5063101;28;20462;-48
2023/04/20 11:11:18;;;;;;;11.93;10.60;;;12.70;87.80;;;;;;5064758;28;20479;-49
2023/04/20 11:13:45;;;;;;;12.40;11.20;;;12.50;69.70;;;;;;5057467;28;20528;-49
2023/04/20 11:16:13;;;;;;;13.90;11.80;;;12.50;68.50;;;;;;5076105;28;21012;-49
2023/04/20 11:18:50;;;;;;;12.67;11.20;;;12.40;95.80;;;;;;5073365;28;21251;-48
2023/04/20 11:21:16;;;;;;;14.57;12.33;;;12.30;28.20;;;;;;5083405;28;20460;-48
2023/04/20 11:23:44;;;;;;;17.13;14.47;;;12.70;99.90;;;;;;5061377;28;20495;-50
2023/04/20 11:26:11;;;;;;;16.60;12.10;;;13.00;39.60;;;;;;5057019;28;20479;-49
2023/04/20 11:28:38;;;;;;;16.03;14.10;;;12.90;57.00;;;;;;5058587;28;20486;-49
2023/04/20 11:31:05;;;;;;;17.93;12.27;;;12.60;73.60;;;;;;5060122;28;20581;-49
2023/04/20 11:33:33;;;;;;;14.13;12.63;;;12.70;32.30;;;;;;5060258;28;20515;-49
2023/04/20 11:36:00;;;;;;;14.90;13.30;;;13.20;99.90;;;;;;5062228;28;20516;-49
2023/04/20 11:38:28;;;;;;;22.13;12.23;;;13.70;73.90;;;;;;5058769;28;20479;-48
2023/04/20 11:40:59;;;;;;;19.50;13.27;;;13.90;82.20;;;;;;5057872;28;20524;-48
2023/04/20 11:43:26;;;;;;;15.70;13.80;;;14.10;82.50;;;;;;5058451;28;20844;-49
2023/04/20 11:45:53;;;;;;;15.37;13.23;;;14.30;61.00;;;;;;5058255;28;20495;-49
2023/04/20 11:48:21;;;;;;;14.20;12.73;;;13.40;99.90;;;;;;5059866;28;20568;-49
2023/04/20 11:50:48;;;;;;;14.33;12.17;;;13.10;99.90;;;;;;5059697;28;20483;-48
2023/04/20 11:53:16;;;;;;;17.70;11.30;;;13.10;99.90;;;;;;5060741;28;20936;-49
2023/04/20 11:55:42;;;;;;;16.27;12.80;;;13.10;87.50;;;;;;5063668;28;20484;-49
2023/04/20 11:58:10;;;;;;;13.77;12.37;;;13.80;94.00;;;;;;5059243;28;20504;-49
2023/04/20 12:00:37;;;;;;;12.27;11.07;;;13.80;99.90;;;;;;5061028;28;20527;-49
2023/04/20 12:03:03;;;;;;;11.73;10.30;;;14.50;99.90;;;;;;5059477;28;21030;-49
2023/04/20 12:05:30;;;;;;;13.60;11.03;;;14.90;99.90;;;;;;5057500;28;20624;-49
2023/04/20 12:07:57;;;;;;;12.67;9.60;;;14.90;78.00;;;;;;5060186;28;20502;-48
2023/04/20 12:10:23;;;;;;;13.50;11.60;;;16.00;26.10;;;;;;5054101;28;20512;-49
2023/04/20 12:12:50;;;;;;;11.67;10.57;;;16.40;43.00;;;;;;5058111;28;20559;-50
2023/04/20 12:15:18;;;;;;;21.53;11.23;;;15.10;40.90;;;;;;5058791;28;20511;-48
2023/04/20 12:17:44;;;;;;;15.40;12.00;;;15.30;32.40;;;;;;5065021;28;20500;-49
2023/04/20 12:20:12;;;;;;;13.53;10.73;;;15.10;99.90;;;;;;5053151;28;20557;-48
2023/04/20 12:22:39;;;;;;;18.13;11.60;;;15.20;99.90;;;;;;5050698;28;20972;-48
2023/04/20 12:25:07;;;;;;;12.50;11.20;;;15.30;86.00;;;;;;5048742;28;20458;-48
2023/04/20 12:27:34;;;;;;;11.93;10.73;;;16.30;55.00;;;;;;5055751;28;20492;-49
2023/04/20 12:30:00;;;;;;;12.73;9.90;;;15.90;82.60;;;;;;5056734;28;20888;-48
2023/04/20 12:32:28;;;;;;;13.40;10.03;;;15.60;75.70;;;;;;5058827;28;20542;-48
2023/04/20 12:34:55;;;;;;;11.60;9.50;;;16.30;68.20;;;;;;5060290;28;20552;-48
2023/04/20 12:37:21;;;;;;;10.50;9.37;;;16.10;69.10;;;;;;5061992;28;20520;-48
2023/04/20 12:39:48;;;;;;;15.40;10.20;;;16.10;68.40;;;;;;5064061;28;20635;-48